Time;durP1;ratioP1;P1;durP2;ratioP2;P2;SDS_P1;SDS_P2;PMS_P1;PMS_P2;Temp;Humidity;BMP_temperature;BMP_pressure;BME280_temperature;BME280_humidity;BME280_pressure;Samples;Min_cycle;Max_cycle;Signal;HPM_P1;HPM_P2
2022/11/06 00:00:01;;;;;;;25.08;16.02;;;;;;;12.33;83.27;63269.38;5055801;28;20205;-75
2022/11/06 00:02:28;;;;;;;27.23;16.23;;;;;;;12.32;83.44;63268.84;5064204;28;20558;-75
2022/11/06 00:06:46;;;;;;;27.25;16.42;;;;;;;12.32;83.25;63268.84;5066339;28;20213;-75
2022/11/06 00:07:44;;;;;;;31.00;16.75;;;;;;;12.28;84.13;63264.19;5064213;28;20263;-76
2022/11/06 00:10:11;;;;;;;29.02;18.15;;;;;;;12.20;85.25;63255.91;5046673;28;20220;-76
2022/11/06 00:12:38;;;;;;;33.83;19.23;;;;;;;12.18;85.57;63261.50;5064013;28;20214;-75
2022/11/06 00:15:05;;;;;;;25.85;16.67;;;;;;;12.13;86.21;63249.16;5062875;28;20261;-75
2022/11/06 00:17:32;;;;;;;24.05;16.55;;;;;;;12.12;86.08;63245.56;5059014;28;20217;-77
2022/11/06 00:19:59;;;;;;;24.65;17.67;;;;;;;12.11;86.13;63252.22;5044730;28;20522;-76
2022/11/06 00:22:26;;;;;;;26.27;16.90;;;;;;;12.15;85.40;63251.22;5043777;28;20534;-75
2022/11/06 00:24:54;;;;;;;23.83;16.00;;;;;;;12.12;85.02;63252.72;5044298;28;20198;-76
2022/11/06 00:27:21;;;;;;;26.48;14.93;;;;;;;12.03;84.92;63241.34;5080898;28;20228;-75
2022/11/06 00:29:48;;;;;;;25.65;16.52;;;;;;;12.09;84.39;63245.03;5068497;28;20229;-76
2022/11/06 00:32:15;;;;;;;22.92;15.68;;;;;;;12.12;84.36;63250.69;5072079;28;20221;-76
2022/11/06 00:34:42;;;;;;;25.48;14.98;;;;;;;12.08;84.68;63243.97;5064083;28;20197;-75
2022/11/06 00:37:09;;;;;;;26.02;14.73;;;;;;;12.11;85.32;63246.56;5053805;28;20214;-75
2022/11/06 00:39:36;;;;;;;28.13;16.23;;;;;;;12.10;85.07;63248.09;5043630;28;20205;-74
2022/11/06 00:42:04;;;;;;;33.03;15.82;;;;;;;11.93;86.16;63227.91;5043699;28;20234;-75
2022/11/06 00:44:31;;;;;;;27.73;15.32;;;;;;;11.89;86.42;63221.75;5043314;28;20198;-75
2022/11/06 00:46:58;;;;;;;20.95;14.40;;;;;;;11.73;87.21;63207.72;5048892;28;20210;-75
2022/11/06 00:49:25;;;;;;;19.38;12.85;;;;;;;11.70;86.91;63204.09;5046544;28;20198;-75
2022/11/06 00:51:52;;;;;;;22.77;13.70;;;;;;;11.53;87.71;63189.53;5066039;28;20236;-75
2022/11/06 00:54:19;;;;;;;20.88;13.80;;;;;;;11.50;88.16;63183.88;5054714;28;20549;-74
2022/11/06 00:56:46;;;;;;;18.27;12.52;;;;;;;11.51;87.96;63185.41;5045108;28;20198;-75
2022/11/06 00:59:14;;;;;;;22.75;13.60;;;;;;;11.45;88.41;63178.69;5051804;28;20201;-76
2022/11/06 01:01:43;;;;;;;21.83;12.77;;;;;;;11.35;88.74;63171.41;5063324;28;20200;-75
2022/11/06 01:04:13;;;;;;;19.85;12.57;;;;;;;11.17;90.40;63145.13;5044242;28;20251;-75
2022/11/06 01:06:42;;;;;;;16.60;12.20;;;;;;;11.17;91.01;63145.13;5044258;28;20240;-75
2022/11/06 01:09:11;;;;;;;12.98;11.10;;;;;;;11.08;92.19;63140.38;5057232;28;20228;-75
2022/11/06 01:11:41;;;;;;;18.85;12.48;;;;;;;11.08;93.50;63137.84;5063564;28;20204;-75
2022/11/06 01:14:09;;;;;;;20.00;11.55;;;;;;;11.05;94.55;63142.34;5048696;28;20252;-76
2022/11/06 01:16:37;;;;;;;15.43;10.95;;;;;;;11.03;95.31;63135.72;5046236;28;20197;-76
2022/11/06 01:19:04;;;;;;;16.10;11.10;;;;;;;11.04;96.08;63141.31;5063796;28;20251;-75
2022/11/06 01:21:33;;;;;;;17.63;11.90;;;;;;;11.05;96.57;63137.78;5061669;28;20513;-75
2022/11/06 01:24:02;;;;;;;19.70;11.55;;;;;;;11.03;96.66;63140.81;5066096;28;20217;-75
2022/11/06 01:26:30;;;;;;;18.08;11.52;;;;;;;11.00;96.98;63132.59;5058781;28;20240;-74
2022/11/06 01:28:57;;;;;;;17.00;11.80;;;;;;;10.95;97.01;63122.34;5046963;28;20268;-75
2022/11/06 01:31:26;;;;;;;17.48;11.95;;;;;;;10.93;97.28;63127.38;5047815;28;20240;-74
2022/11/06 01:33:54;;;;;;;16.13;10.15;;;;;;;11.01;96.73;63133.63;5048186;28;20410;-75
2022/11/06 01:36:22;;;;;;;15.80;8.73;;;;;;;11.05;95.43;63137.25;5064531;28;20267;-75
2022/11/06 01:38:51;;;;;;;11.73;9.38;;;;;;;11.01;96.32;63135.69;5047808;28;20256;-75
2022/11/06 01:41:21;;;;;;;12.70;7.60;;;;;;;11.08;96.11;63138.34;5059711;28;20267;-74
2022/11/06 01:43:51;;;;;;;11.32;6.75;;;;;;;11.21;95.39;63153.84;5065577;28;20232;-74
2022/11/06 01:46:19;;;;;;;13.57;7.30;;;;;;;11.37;94.28;63170.41;5071534;28;20380;-75
2022/11/06 01:48:50;;;;;;;7.93;6.53;;;;;;;11.66;92.26;63197.91;5064901;28;20217;-75
2022/11/06 01:51:18;;;;;;;11.63;6.90;;;;;;;11.78;92.18;63215.44;5047164;28;20232;-75
2022/11/06 01:53:46;;;;;;;13.23;6.85;;;;;;;11.96;90.28;63228.50;5057742;28;20217;-76
2022/11/06 01:56:15;;;;;;;10.10;6.03;;;;;;;12.02;89.38;63234.69;5066666;28;20243;-76
2022/11/06 01:58:46;;;;;;;9.57;6.80;;;;;;;12.10;88.47;63246.06;5064027;28;20525;-75
2022/11/06 02:01:13;;;;;;;10.35;6.20;;;;;;;12.20;88.03;63258.97;5067195;28;20193;-76
2022/11/06 02:03:45;;;;;;;11.02;6.38;;;;;;;12.23;87.14;63259.53;5049696;28;20289;-75
2022/11/06 02:06:12;;;;;;;6.13;5.55;;;;;;;12.32;86.58;63268.84;5046795;28;20198;-75
2022/11/06 02:08:41;;;;;;;7.47;6.60;;;;;;;12.38;85.68;63269.97;5061572;28;20232;-75
2022/11/06 02:11:08;;;;;;;8.73;6.03;;;;;;;12.39;85.05;63278.16;5065018;28;20197;-74
2022/11/06 02:13:44;;;;;;;8.48;6.68;;;;;;;12.45;85.05;63282.34;5059079;28;20217;-75
2022/11/06 02:16:18;;;;;;;8.10;6.05;;;;;;;12.52;83.64;63287.03;5049872;28;20205;-75
2022/11/06 02:19:02;;;;;;;9.68;6.15;;;;;;;12.64;83.04;63302.03;5067102;28;20217;-75
2022/11/06 02:22:13;;;;;;;8.07;5.57;;;;;;;12.67;83.00;63307.19;5048083;28;20380;-75
2022/11/06 02:25:00;;;;;;;9.20;5.70;;;;;;;12.74;82.83;63309.31;4999747;28;20197;-74
2022/11/06 02:27:30;;;;;;;6.78;6.05;;;;;;;12.74;83.33;63317.00;5046710;28;20256;-75
2022/11/06 02:30:04;;;;;;;9.15;6.22;;;;;;;12.75;83.97;63312.94;5058877;28;20213;-75
2022/11/06 02:32:36;;;;;;;10.68;5.70;;;;;;;12.69;82.09;63306.69;5067177;28;20247;-75
2022/11/06 02:35:09;;;;;;;10.32;5.68;;;;;;;12.75;81.96;63312.94;5055692;28;20438;-75
2022/11/06 02:37:39;;;;;;;6.68;5.18;;;;;;;12.69;81.91;63309.78;5047062;28;20222;-75
2022/11/06 02:40:09;;;;;;;9.20;6.03;;;;;;;12.68;82.13;63303.13;5066032;28;20224;-76
2022/11/06 02:42:41;;;;;;;8.48;5.80;;;;;;;12.73;82.67;63311.34;5065947;28;20278;-75
2022/11/06 02:45:11;;;;;;;6.93;5.80;;;;;;;12.78;83.18;63318.59;5049746;28;20494;-75
2022/11/06 02:47:39;;;;;;;9.15;5.30;;;;;;;12.76;82.09;63313.97;5065228;28;20434;-75
2022/11/06 02:50:11;;;;;;;7.22;5.65;;;;;;;12.74;82.24;63314.97;5066265;28;20236;-75
2022/11/06 02:52:41;;;;;;;9.57;5.72;;;;;;;12.77;82.89;63317.53;5064931;28;20216;-75
2022/11/06 02:55:14;;;;;;;9.18;5.95;;;;;;;12.73;83.80;63313.41;5065515;28;20220;-75
2022/11/06 02:57:46;;;;;;;7.15;5.85;;;;;;;12.69;84.21;63307.22;5045937;28;20222;-74
2022/11/06 03:00:15;;;;;;;8.88;5.32;;;;;;;12.62;83.93;63299.97;5045816;28;20408;-75
2022/11/06 03:02:46;;;;;;;8.27;5.60;;;;;;;12.63;84.56;63297.94;5057781;28;20271;-76
2022/11/06 03:05:19;;;;;;;7.10;5.65;;;;;;;12.65;84.78;63302.53;5066375;28;20205;-75
2022/11/06 03:07:53;;;;;;;10.23;5.63;;;;;;;12.62;84.80;63299.44;5065297;28;20213;-73
2022/11/06 03:10:24;;;;;;;6.88;5.50;;;;;;;12.63;84.73;63303.56;5064846;28;20566;-75
2022/11/06 03:12:57;;;;;;;8.20;6.22;;;;;;;12.62;85.98;63304.56;5065443;28;20225;-74
2022/11/06 03:15:33;;;;;;;14.68;6.00;;;;;;;12.61;87.22;63298.91;5064370;28;20203;-75
2022/11/06 03:18:08;;;;;;;8.35;6.07;;;;;;;12.61;86.80;63301.47;5065347;28;20228;-75
2022/11/06 03:20:40;;;;;;;10.65;6.65;;;;;;;12.60;86.63;63297.38;5061397;28;20193;-75
2022/11/06 03:23:14;;;;;;;6.82;5.50;;;;;;;12.62;86.42;63299.97;5063255;28;20583;-76
2022/11/06 03:25:47;;;;;;;9.52;5.93;;;;;;;12.65;85.68;63303.06;5066296;28;20193;-75
2022/11/06 03:28:24;;;;;;;9.95;6.20;;;;;;;12.61;86.03;63298.91;5062011;28;20221;-76
2022/11/06 03:30:54;;;;;;;7.22;5.65;;;;;;;12.55;86.35;63290.16;5054971;28;20257;-75
2022/11/06 03:33:25;;;;;;;8.88;6.05;;;;;;;12.52;86.16;63286.53;5064386;28;20598;-76
2022/11/06 03:35:57;;;;;;;7.10;5.68;;;;;;;12.49;84.98;63283.91;5065374;28;20247;-75
2022/11/06 03:38:27;;;;;;;7.00;5.22;;;;;;;12.50;83.79;63287.00;5053323;28;20217;-75
2022/11/06 03:41:00;;;;;;;8.63;5.15;;;;;;;12.56;83.78;63293.22;5047268;28;20194;-76
2022/11/06 03:43:34;;;;;;;8.13;5.63;;;;;;;12.49;83.67;63285.97;5064597;28;20545;-76
2022/11/06 03:46:04;;;;;;;6.25;4.90;;;;;;;12.55;83.48;63292.72;5061190;28;20205;-78
2022/11/06 03:48:33;;;;;;;5.28;4.78;;;;;;;12.55;83.78;63292.19;5064000;28;20267;-74
2022/11/06 03:51:05;;;;;;;12.90;5.65;;;;;;;12.55;83.44;63295.25;5064687;28;20372;-75
2022/11/06 03:53:37;;;;;;;31.23;6.80;;;;;;;12.47;83.40;63284.41;5064978;28;20504;-75
2022/11/06 03:56:09;;;;;;;5.97;4.93;;;;;;;12.48;83.58;63280.34;5059785;28;20197;-75
2022/11/06 03:58:41;;;;;;;8.23;5.35;;;;;;;12.44;83.36;63281.28;5051619;28;20439;-74
2022/11/06 04:01:10;;;;;;;13.23;6.47;;;;;;;12.46;83.81;63282.84;5065324;28;20224;-75
2022/11/06 04:03:43;;;;;;;6.22;5.15;;;;;;;12.48;84.13;63284.94;5063960;28;20277;-75
2022/11/06 04:06:15;;;;;;;7.40;5.97;;;;;;;12.51;84.17;63293.66;5050128;28;20198;-75
2022/11/06 04:14:23;;;;;;;9.65;5.25;;;;;;;12.48;83.02;63285.44;5051224;28;20404;-75
2022/11/06 04:16:54;;;;;;;5.05;4.60;;;;;;;12.52;82.74;63289.59;5063065;28;20202;-75
2022/11/06 04:19:23;;;;;;;9.02;4.35;;;;;;;12.58;82.50;63298.38;5064295;28;20215;-75
2022/11/06 04:22:05;;;;;;;6.82;5.40;;;;;;;12.61;82.10;63298.91;5050813;28;20217;-75
2022/11/06 04:27:43;;;;;;;12.55;6.55;;;;;;;12.59;86.26;63296.88;5062206;28;20224;-75
2022/11/06 04:30:14;;;;;;;9.40;6.80;;;;;;;12.53;90.06;63290.63;5063417;28;20235;-75
2022/11/06 04:32:54;;;;;;;10.30;7.15;;;;;;;12.45;96.32;63284.91;5062995;28;20541;-74
2022/11/06 04:35:28;;;;;;;9.48;8.10;;;;;;;12.33;98.99;63269.91;5063034;28;20547;-76
2022/11/06 04:38:02;;;;;;;11.05;8.38;;;;;;;12.25;100.00;63256.50;5059802;28;20217;-76
2022/11/06 04:40:38;;;;;;;8.45;7.43;;;;;;;12.16;100.00;63254.31;5044707;28;20197;-75
2022/11/06 04:43:11;;;;;;;10.88;8.07;;;;;;;12.06;100.00;63241.41;5045687;28;20233;-76
2022/11/06 04:45:42;;;;;;;10.38;9.32;;;;;;;11.99;100.00;63234.16;5062246;28;20197;-74
2022/11/06 04:48:11;;;;;;;12.25;8.90;;;;;;;11.98;100.00;63228.00;5063286;28;20213;-75
2022/11/06 04:50:43;;;;;;;10.70;8.70;;;;;;;11.84;100.00;63221.66;5050644;28;20247;-74
2022/11/06 04:53:11;;;;;;;12.60;8.80;;;;;;;11.74;100.00;63211.31;5063659;28;20220;-75
2022/11/06 04:55:46;;;;;;;15.48;8.95;;;;;;;11.72;100.00;63206.69;5062276;28;20548;-75
2022/11/06 04:58:13;;;;;;;11.18;9.10;;;;;;;11.72;100.00;63206.69;5062379;28;20233;-75
2022/11/06 05:00:45;;;;;;;10.20;8.43;;;;;;;11.76;100.00;63212.84;5061164;28;20247;-75
2022/11/06 05:03:12;;;;;;;11.95;8.90;;;;;;;11.67;100.00;63204.03;5054210;28;20233;-75
2022/11/06 05:05:39;;;;;;;15.82;9.90;;;;;;;11.51;100.00;63184.91;5056960;28;20220;-76
2022/11/06 05:08:06;;;;;;;12.05;8.60;;;;;;;11.49;100.00;63183.34;5045565;28;20225;-74
2022/11/06 05:10:33;;;;;;;16.73;9.80;;;;;;;11.46;100.00;63182.28;5047228;28;20197;-75
2022/11/06 05:13:00;;;;;;;11.95;8.85;;;;;;;11.29;100.00;63162.63;5063509;28;20221;-75
2022/11/06 05:15:27;;;;;;;14.05;9.07;;;;;;;11.16;100.00;63151.22;5061029;28;20277;-74
2022/11/06 05:17:58;;;;;;;11.85;10.00;;;;;;;11.18;100.00;63148.69;5054980;28;20222;-75
2022/11/06 05:20:25;;;;;;;22.05;9.45;;;;;;;11.08;100.00;63138.34;5057956;28;20197;-75
2022/11/06 05:22:56;;;;;;;13.27;10.63;;;;;;;11.16;100.00;63149.19;5064142;28;20255;-75
2022/11/06 05:25:23;;;;;;;19.40;10.77;;;;;;;11.11;100.00;63146.53;5059810;28;20194;-75
2022/11/06 05:27:50;;;;;;;13.25;9.68;;;;;;;11.14;100.00;63144.03;5048845;28;20451;-75
2022/11/06 05:30:17;;;;;;;15.60;9.73;;;;;;;11.16;100.00;63146.63;5048961;28;20206;-75
2022/11/06 05:32:44;;;;;;;14.57;10.55;;;;;;;11.18;100.00;63150.72;5051220;28;20529;-74
2022/11/06 05:35:12;;;;;;;15.07;9.75;;;;;;;11.04;100.00;63136.75;5054408;28;20258;-74
2022/11/06 05:37:39;;;;;;;18.65;10.93;;;;;;;11.12;100.00;63147.59;5055315;28;20262;-75
2022/11/06 05:40:07;;;;;;;18.40;10.80;;;;;;;11.13;100.00;63146.06;5063749;28;20193;-74
2022/11/06 05:42:34;;;;;;;12.77;9.75;;;;;;;11.16;100.00;63149.19;5051465;28;20241;-73
2022/11/06 05:45:01;;;;;;;13.52;10.23;;;;;;;11.24;100.00;63159.47;5044773;28;20233;-74
2022/11/06 05:47:27;;;;;;;17.23;11.57;;;;;;;11.31;100.00;63164.19;5050088;28;20251;-75
2022/11/06 05:49:54;;;;;;;12.25;10.93;;;;;;;11.35;100.00;63163.25;5062812;28;20303;-75
2022/11/06 05:52:22;;;;;;;12.30;10.38;;;;;;;11.44;100.00;63175.63;5061003;28;20217;-75
2022/11/06 05:54:49;;;;;;;16.90;10.20;;;;;;;11.49;100.00;63180.28;5048157;28;20206;-74
2022/11/06 05:57:16;;;;;;;15.38;11.07;;;;;;;11.51;100.00;63185.41;5056134;28;20222;-74
2022/11/06 05:59:43;;;;;;;11.52;10.18;;;;;;;11.56;100.00;63190.59;5060151;28;20254;-75
2022/11/06 06:02:10;;;;;;;15.95;10.45;;;;;;;11.67;100.00;63198.41;5042918;28;20222;-74
2022/11/06 06:04:37;;;;;;;17.35;11.40;;;;;;;11.72;100.00;63206.69;5043602;28;20268;-74
2022/11/06 06:07:04;;;;;;;14.63;10.50;;;;;;;11.85;100.00;63222.19;5062941;28;20220;-74
2022/11/06 06:09:32;;;;;;;11.20;10.00;;;;;;;11.96;100.00;63231.53;5062290;28;20385;-75
2022/11/06 06:11:59;;;;;;;15.80;11.15;;;;;;;12.09;100.00;63241.94;5052340;28;20209;-75
2022/11/06 06:14:26;;;;;;;11.70;9.32;;;;;;;12.18;100.00;63254.34;5057872;28;20203;-75
2022/11/06 06:16:53;;;;;;;18.30;10.18;;;;;;;12.30;100.00;63266.28;5060017;28;20198;-75
2022/11/06 06:19:20;;;;;;;16.70;10.32;;;;;;;12.28;100.00;63259.09;5066076;28;20410;-76
2022/11/06 06:21:47;;;;;;;13.35;9.15;;;;;;;12.20;100.00;63253.88;5065291;28;20246;-76
2022/11/06 06:24:13;;;;;;;11.82;8.68;;;;;;;12.25;100.00;63264.16;5061914;28;20271;-75
2022/11/06 06:26:41;;;;;;;13.93;8.85;;;;;;;12.25;100.00;63256.50;5062686;28;20216;-75
2022/11/06 06:29:08;;;;;;;12.57;9.45;;;;;;;12.05;100.00;63242.91;5083688;28;20255;-76
2022/11/06 06:31:35;;;;;;;13.23;9.23;;;;;;;12.09;100.00;63244.50;5078678;28;20192;-77
2022/11/06 06:34:02;;;;;;;12.52;8.68;;;;;;;12.19;100.00;63254.88;5065024;28;20217;-77
2022/11/06 06:36:29;;;;;;;17.80;9.52;;;;;;;12.19;100.00;63255.38;5069251;28;20197;-78
2022/11/06 06:38:56;;;;;;;13.88;9.80;;;;;;;12.37;100.00;63274.03;5066372;28;20276;-75
2022/11/06 06:41:22;;;;;;;10.32;9.20;;;;;;;12.59;100.00;63293.78;5061063;28;20213;-76
2022/11/06 06:43:51;;;;;;;13.93;9.57;;;;;;;12.76;100.00;63314.47;5063086;28;20236;-75
2022/11/06 06:46:18;;;;;;;12.48;9.45;;;;;;;12.92;100.00;63330.03;5065000;28;20265;-75
2022/11/06 06:48:44;;;;;;;14.38;9.95;;;;;;;13.00;100.00;63338.84;5064649;28;20407;-76
2022/11/06 06:51:11;;;;;;;14.52;10.50;;;;;;;12.98;100.00;63336.78;5066760;28;20205;-76
2022/11/06 06:53:38;;;;;;;14.85;10.32;;;;;;;13.04;100.00;63345.06;5061143;28;20224;-77
2022/11/06 06:56:06;;;;;;;14.13;10.05;;;;;;;13.23;100.00;63357.09;5056107;28;20274;-76
2022/11/06 06:58:33;;;;;;;14.25;10.23;;;;;;;13.25;100.00;63361.72;5061621;28;20299;-75
2022/11/06 07:01:03;;;;;;;15.60;9.90;;;;;;;13.44;100.00;63384.00;5066073;28;20243;-77
2022/11/06 07:03:30;;;;;;;13.23;9.55;;;;;;;13.56;100.00;63394.41;5058964;28;20240;-77
2022/11/06 07:05:58;;;;;;;14.48;10.48;;;;;;;13.60;100.00;63398.03;5051313;28;20198;-77
2022/11/06 07:08:25;;;;;;;14.35;10.60;;;;;;;13.67;100.00;63408.38;5061047;28;20431;-77
2022/11/06 07:10:52;;;;;;;15.98;9.52;;;;;;;13.77;100.00;63418.25;5063579;28;20255;-76
2022/11/06 07:13:19;;;;;;;11.75;8.80;;;;;;;13.75;100.00;63413.63;5059883;28;20584;-75
2022/11/06 07:15:45;;;;;;;10.77;9.23;;;;;;;13.78;100.00;63414.16;5062222;28;20247;-76
2022/11/06 07:18:14;;;;;;;13.00;9.20;;;;;;;13.96;100.00;63440.53;5065400;28;20576;-76
2022/11/06 07:20:41;;;;;;;14.73;9.30;;;;;;;14.14;100.00;63453.56;5062716;28;20205;-76
2022/11/06 07:23:08;;;;;;;10.38;7.85;;;;;;;14.16;99.99;63461.28;5060745;28;20248;-76
2022/11/06 07:25:35;;;;;;;10.32;7.18;;;;;;;14.23;98.84;63465.47;5070432;28;20224;-76
2022/11/06 07:28:02;;;;;;;12.32;8.02;;;;;;;14.27;97.91;63469.66;5067259;28;20217;-76
2022/11/06 07:30:29;;;;;;;10.82;8.13;;;;;;;14.32;97.04;63475.38;5062959;28;20197;-77
2022/11/06 07:32:56;;;;;;;11.95;8.23;;;;;;;14.33;96.64;63473.84;5065177;28;20533;-77
2022/11/06 07:35:24;;;;;;;16.13;9.15;;;;;;;14.39;96.44;63479.56;5064806;28;20204;-76
2022/11/06 07:37:51;;;;;;;15.77;9.65;;;;;;;14.35;97.36;63477.97;5061829;28;20236;-77
2022/11/06 07:40:18;;;;;;;10.57;8.82;;;;;;;14.37;98.49;63480.03;5065690;28;20234;-77
2022/11/06 07:42:44;;;;;;;13.15;10.27;;;;;;;14.44;97.83;63487.31;5064500;28;20239;-76
2022/11/06 07:45:11;;;;;;;12.98;10.23;;;;;;;14.49;97.92;63495.06;5066120;28;20221;-77
2022/11/06 07:47:38;;;;;;;11.15;9.20;;;;;;;14.37;97.87;63483.13;5063312;28;20225;-77
2022/11/06 07:50:06;;;;;;;12.75;10.27;;;;;;;14.49;98.10;63493.03;5064871;28;20204;-76
2022/11/06 07:52:34;;;;;;;11.77;9.85;;;;;;;14.47;98.94;63493.50;5066366;28;20563;-76
2022/11/06 07:55:01;;;;;;;12.05;10.32;;;;;;;14.49;99.07;63489.94;5066425;28;20216;-75
2022/11/06 07:57:28;;;;;;;12.57;10.50;;;;;;;14.50;98.66;63494.06;5061708;28;20484;-75
2022/11/06 07:59:55;;;;;;;16.10;10.75;;;;;;;14.29;99.21;63474.31;5063463;28;20193;-75
2022/11/06 08:02:21;;;;;;;17.88;11.07;;;;;;;14.40;99.50;63486.25;5065737;28;20216;-76
2022/11/06 08:04:48;;;;;;;14.05;9.88;;;;;;;14.43;98.76;63491.38;5062693;28;20228;-75
2022/11/06 08:07:15;;;;;;;17.60;10.68;;;;;;;14.43;100.00;63486.78;5046847;28;20229;-76
2022/11/06 08:09:43;;;;;;;14.20;10.68;;;;;;;14.61;99.79;63512.66;5047108;28;20194;-77
2022/11/06 08:12:10;;;;;;;16.02;11.88;;;;;;;14.66;99.75;63510.69;5044840;28;20272;-77
2022/11/06 08:14:37;;;;;;;15.90;11.05;;;;;;;14.80;99.97;63524.69;5051658;28;20198;-76
2022/11/06 08:17:03;;;;;;;17.23;12.05;;;;;;;14.89;98.84;63536.63;5065777;28;20204;-77
2022/11/06 08:19:30;;;;;;;16.27;11.95;;;;;;;14.97;98.61;63547.50;5066897;28;20193;-76
2022/11/06 08:21:57;;;;;;;16.13;11.90;;;;;;;14.92;97.83;63537.16;5064680;28;20201;-76
2022/11/06 08:24:24;;;;;;;17.15;11.65;;;;;;;14.93;97.79;63545.88;5056755;28;20271;-75
2022/11/06 08:26:52;;;;;;;14.18;10.45;;;;;;;15.01;97.45;63541.41;5070576;28;20424;-75
2022/11/06 08:29:19;;;;;;;16.73;11.13;;;;;;;15.09;97.63;63554.84;5064832;28;20201;-76
2022/11/06 08:31:45;;;;;;;17.52;10.98;;;;;;;15.20;97.55;63563.69;5064614;28;20196;-76
2022/11/06 08:34:12;;;;;;;21.13;11.10;;;;;;;15.22;98.28;63568.31;5054956;28;20205;-76
2022/11/06 08:36:43;;;;;;;16.45;10.77;;;;;;;15.04;100.00;63547.06;5065948;28;20201;-77
2022/11/06 08:39:10;;;;;;;15.18;11.27;;;;;;;15.07;100.00;63552.75;5065608;28;20216;-77
2022/11/06 08:41:38;;;;;;;16.55;11.35;;;;;;;14.67;100.00;63516.84;5064944;28;20254;-77
2022/11/06 08:44:07;;;;;;;13.32;11.90;;;;;;;14.80;100.00;63530.34;5065166;28;20228;-78
2022/11/06 08:46:34;;;;;;;17.00;12.38;;;;;;;14.78;100.00;63520.06;5045982;28;20367;-77
2022/11/06 08:49:01;;;;;;;20.70;12.52;;;;;;;14.86;100.00;63536.56;5046086;28;20224;-78
2022/11/06 08:51:28;;;;;;;16.48;11.60;;;;;;;14.57;100.00;63505.94;5047514;28;20247;-76
2022/11/06 08:53:54;;;;;;;17.83;11.25;;;;;;;14.34;100.00;63479.50;5050839;28;20283;-79
2022/11/06 08:56:21;;;;;;;15.15;11.60;;;;;;;14.15;100.00;63460.25;5066045;28;20193;-76
2022/11/06 08:58:48;;;;;;;19.55;12.80;;;;;;;14.02;100.00;63446.75;5067809;28;20259;-74
2022/11/06 09:01:16;;;;;;;15.48;12.82;;;;;;;13.93;100.00;63437.41;5049439;28;20412;-76
2022/11/06 09:03:43;;;;;;;15.90;12.82;;;;;;;13.91;100.00;63430.75;5056259;28;20458;-75
2022/11/06 09:06:10;;;;;;;17.80;12.27;;;;;;;13.88;100.00;63430.19;5064880;28;20208;-76
2022/11/06 09:08:37;;;;;;;14.35;11.52;;;;;;;13.83;100.00;63424.47;5064878;28;20423;-75
2022/11/06 09:11:07;;;;;;;18.27;12.10;;;;;;;13.93;100.00;63432.81;5051196;28;20236;-75
2022/11/06 09:13:34;;;;;;;18.98;12.73;;;;;;;14.02;100.00;63446.75;5044217;28;20230;-76
2022/11/06 09:16:01;;;;;;;16.40;12.52;;;;;;;14.11;100.00;63450.97;5061737;28;20255;-74
2022/11/06 09:18:29;;;;;;;14.88;11.48;;;;;;;14.29;100.00;63471.75;5046513;28;20522;-74
2022/11/06 09:20:57;;;;;;;18.65;12.40;;;;;;;14.22;100.00;63462.41;5048971;28;20223;-74
2022/11/06 09:23:23;;;;;;;16.65;11.52;;;;;;;14.35;100.00;63475.94;5065203;28;20223;-74
2022/11/06 09:25:51;;;;;;;17.38;12.48;;;;;;;14.45;100.00;63485.78;5061822;28;20230;-76
2022/11/06 09:28:17;;;;;;;16.75;11.80;;;;;;;14.40;100.00;63483.69;5063390;28;20292;-75
2022/11/06 09:30:44;;;;;;;17.88;11.60;;;;;;;14.42;100.00;63483.19;5062869;28;20205;-75
2022/11/06 09:33:11;;;;;;;16.42;10.88;;;;;;;14.44;100.00;63484.75;5062903;28;20533;-74
2022/11/06 09:35:39;;;;;;;15.30;10.27;;;;;;;14.42;100.00;63490.34;5053614;28;20434;-73
2022/11/06 09:38:08;;;;;;;12.52;10.43;;;;;;;14.47;100.00;63490.94;5044271;28;20218;-73
2022/11/06 09:40:37;;;;;;;18.48;10.55;;;;;;;14.55;100.00;63499.25;5049986;28;20205;-73
2022/11/06 09:43:17;;;;;;;12.90;10.90;;;;;;;14.44;100.00;63485.28;5064098;28;20212;-72
2022/11/06 09:45:48;;;;;;;16.00;10.48;;;;;;;14.45;100.00;63486.31;5065270;28;20216;-72
2022/11/06 09:48:21;;;;;;;14.88;10.70;;;;;;;14.55;100.00;63498.72;5069963;28;20217;-72
2022/11/06 09:50:54;;;;;;;13.88;11.27;;;;;;;14.48;100.00;63489.41;5062995;28;20207;-74
2022/11/06 09:53:28;;;;;;;18.63;11.35;;;;;;;14.47;100.00;63490.41;5047385;28;20225;-72
2022/11/06 09:55:57;;;;;;;12.93;10.80;;;;;;;14.51;100.00;63495.09;5048004;28;20186;-72
2022/11/06 09:58:31;;;;;;;19.13;10.85;;;;;;;14.57;100.00;63501.31;5051480;28;20217;-73
2022/11/06 10:01:02;;;;;;;14.57;12.10;;;;;;;14.71;100.00;63515.88;5065999;28;20219;-72
2022/11/06 10:03:40;;;;;;;13.60;11.55;;;;;;;14.77;100.00;63524.16;5050447;28;20248;-73
2022/11/06 10:06:08;;;;;;;20.90;13.48;;;;;;;14.88;100.00;63530.44;5046823;28;20217;-71
2022/11/06 10:08:35;;;;;;;21.67;13.88;;;;;;;14.94;100.00;63542.31;5062728;28;20220;-73
2022/11/06 10:11:06;;;;;;;15.95;13.02;;;;;;;14.79;100.00;63524.19;5047953;28;20202;-73
2022/11/06 10:13:53;;;;;;;13.32;11.05;;;;;;;14.81;100.00;63526.25;5047092;28;20218;-72
2022/11/06 10:16:29;;;;;;;14.93;9.23;;;;;;;14.81;100.00;63531.38;5064274;28;20501;-73
2022/11/06 10:19:06;;;;;;;10.15;8.77;;;;;;;14.74;100.00;63518.47;5056097;28;20445;-72
2022/11/06 10:21:45;;;;;;;10.85;8.85;;;;;;;14.65;100.00;63512.19;5050550;28;20247;-72
2022/11/06 10:24:21;;;;;;;10.32;8.18;;;;;;;14.71;100.00;63512.78;5065766;28;20220;-72
2022/11/06 10:26:53;;;;;;;12.75;8.75;;;;;;;14.42;100.00;63485.75;5072844;28;20204;-73
2022/11/06 10:29:40;;;;;;;7.80;7.10;;;;;;;14.32;100.00;63472.28;5065277;28;20367;-73
2022/11/06 10:32:42;;;;;;;10.23;7.50;;;;;;;14.14;100.00;63458.69;5066714;28;20197;-73
2022/11/06 10:35:16;;;;;;;9.40;7.50;;;;;;;14.14;100.00;63454.09;5062721;28;20486;-74
2022/11/06 10:37:49;;;;;;;8.90;6.85;;;;;;;13.93;100.00;63434.34;5051563;28;20284;-73
2022/11/06 10:40:19;;;;;;;12.07;8.13;;;;;;;13.83;100.00;63421.91;5052153;28;20247;-74
2022/11/06 10:42:55;;;;;;;10.65;9.55;;;;;;;13.74;100.00;63415.13;5049751;28;20256;-74
2022/11/06 10:45:23;;;;;;;18.73;12.20;;;;;;;13.68;100.00;63411.97;5065956;28;20219;-74
2022/11/06 10:47:55;;;;;;;17.45;13.05;;;;;;;13.48;100.00;63386.09;5069769;28;20323;-74
2022/11/06 10:50:29;;;;;;;17.13;12.63;;;;;;;13.51;100.00;63394.34;5063983;28;20185;-74
2022/11/06 10:53:05;;;;;;;17.85;14.32;;;;;;;13.57;100.00;63400.03;5059467;28;20248;-74
2022/11/06 10:55:53;;;;;;;18.17;12.43;;;;;;;13.69;100.00;63409.94;5067072;28;20223;-75
2022/11/06 10:58:22;;;;;;;15.00;12.43;;;;;;;13.72;100.00;63410.50;5059762;28;20226;-73
2022/11/06 11:00:51;;;;;;;12.75;11.20;;;;;;;13.54;100.00;63394.91;5057655;28;20225;-73
2022/11/06 11:03:24;;;;;;;12.13;10.93;;;;;;;13.60;100.00;63400.59;5066312;28;20222;-73
2022/11/06 11:05:51;;;;;;;13.23;10.00;;;;;;;13.66;100.00;63407.34;5067893;28;20220;-74
2022/11/06 11:08:44;;;;;;;11.43;10.23;;;;;;;13.50;100.00;63390.75;5065081;28;20268;-74
2022/11/06 11:11:23;;;;;;;12.32;9.95;;;;;;;13.37;100.00;63379.31;5045599;28;20202;-73
2022/11/06 11:14:11;;;;;;;10.13;9.13;;;;;;;13.42;100.00;63382.44;5065425;28;20217;-75
2022/11/06 11:16:40;;;;;;;11.10;9.43;;;;;;;13.61;100.00;63404.72;5065968;28;20185;-73
2022/11/06 11:19:21;;;;;;;10.63;7.90;;;;;;;13.29;100.00;63368.94;5060841;28;20380;-74
2022/11/06 11:21:54;;;;;;;7.78;7.05;;;;;;;13.34;100.00;63374.13;5066498;28;20204;-74
2022/11/06 11:24:22;;;;;;;7.88;7.15;;;;;;;13.36;100.00;63380.81;5067707;28;20192;-74
2022/11/06 11:26:53;;;;;;;7.90;7.20;;;;;;;13.33;100.00;63372.59;5072918;28;20205;-77
2022/11/06 11:29:25;;;;;;;7.45;6.57;;;;;;;13.47;100.00;63387.63;5056723;28;20219;-74
2022/11/06 11:31:55;;;;;;;7.82;7.03;;;;;;;13.62;100.00;63405.75;5063829;28;20201;-75
2022/11/06 11:34:27;;;;;;;7.95;6.85;;;;;;;13.64;100.00;63405.28;5064837;28;20251;-74
2022/11/06 11:37:00;;;;;;;6.70;6.13;;;;;;;13.87;100.00;63428.63;5063160;28;20212;-75
2022/11/06 11:39:33;;;;;;;6.78;6.20;;;;;;;14.01;100.00;63450.84;5064377;28;20197;-76